createdAt,value
2022-11-28T00:01:30.710Z,-4.82
2022-11-28T00:03:57.721Z,-4.85
2022-11-28T00:06:25.638Z,-4.82
2022-11-28T00:08:52.579Z,-4.80
2022-11-28T00:11:19.310Z,-4.89
2022-11-28T00:13:46.636Z,-4.85
2022-11-28T00:16:21.652Z,-4.86
2022-11-28T00:18:52.703Z,-4.78
2022-11-28T00:21:19.717Z,-4.88
2022-11-28T00:23:48.452Z,-4.85
2022-11-28T00:26:19.959Z,-4.75
2022-11-28T00:28:47.085Z,-4.86
2022-11-28T00:31:19.719Z,-4.69
2022-11-28T00:33:46.566Z,-4.79
2022-11-28T00:36:15.306Z,-4.77
2022-11-28T00:38:42.602Z,-4.80
2022-11-28T00:41:14.142Z,-4.80
2022-11-28T00:43:41.998Z,-4.86
2022-11-28T00:46:09.065Z,-4.82
2022-11-28T00:48:36.640Z,-4.75
2022-11-28T00:51:09.436Z,-4.76
2022-11-28T00:53:37.297Z,-4.75
2022-11-28T00:56:07.878Z,-4.81
2022-11-28T00:58:36.148Z,-4.85
2022-11-28T01:01:24.316Z,-4.82
2022-11-28T01:03:52.755Z,-4.88
2022-11-28T01:06:28.618Z,-4.82
2022-11-28T01:08:56.804Z,-4.82
2022-11-28T01:11:24.170Z,-4.89
2022-11-28T01:13:51.276Z,-4.90
2022-11-28T01:16:18.151Z,-4.90
2022-11-28T01:18:45.054Z,-4.97
2022-11-28T01:21:11.843Z,-4.96
2022-11-28T01:23:39.058Z,-4.96
2022-11-28T01:26:08.216Z,-4.95
2022-11-28T01:28:35.547Z,-4.99
2022-11-28T01:31:08.621Z,-4.98
2022-11-28T01:33:35.492Z,-5.11
2022-11-28T01:36:03.195Z,-5.25
2022-11-28T01:38:30.138Z,-5.18
2022-11-28T01:40:58.220Z,-5.23
2022-11-28T01:43:25.000Z,-5.28
2022-11-28T01:45:52.766Z,-5.29
2022-11-28T01:48:26.850Z,-5.31
2022-11-28T01:51:00.258Z,-5.34
2022-11-28T01:53:30.588Z,-5.39
2022-11-28T01:56:09.149Z,-5.45
2022-11-28T01:58:41.471Z,-5.43
2022-11-28T02:01:09.040Z,-5.42
2022-11-28T02:04:03.447Z,-5.46
2022-11-28T02:06:31.955Z,-5.51
2022-11-28T02:08:58.583Z,-5.46
2022-11-28T02:11:43.578Z,-5.59
2022-11-28T02:14:45.470Z,-5.58
2022-11-28T02:17:33.167Z,-5.51
2022-11-28T02:20:37.495Z,-5.48
2022-11-28T02:23:17.983Z,-5.49
2022-11-28T02:26:32.212Z,-5.55
2022-11-28T02:29:20.555Z,-5.57
2022-11-28T02:32:11.655Z,-5.47
2022-11-28T02:34:45.636Z,-5.58
2022-11-28T02:37:27.148Z,-5.60
2022-11-28T02:40:07.118Z,-5.62
2022-11-28T02:42:59.036Z,-5.64
2022-11-28T02:45:58.146Z,-5.68
2022-11-28T02:48:29.527Z,-5.90
2022-11-28T02:51:09.768Z,-5.73
2022-11-28T02:53:37.815Z,-5.76
2022-11-28T02:56:05.002Z,-5.87
2022-11-28T02:58:31.707Z,-5.81
2022-11-28T03:00:58.572Z,-5.90
2022-11-28T03:04:02.088Z,-5.86
2022-11-28T03:06:35.559Z,-5.79
2022-11-28T03:09:43.426Z,-5.76
2022-11-28T03:12:37.680Z,-5.92
2022-11-28T03:15:07.619Z,-5.96
2022-11-28T03:18:01.996Z,-5.92
2022-11-28T03:20:37.706Z,-5.97
2022-11-28T03:23:04.345Z,-6.07
2022-11-28T03:25:40.523Z,-6.07
2022-11-28T03:28:29.892Z,-5.82
2022-11-28T03:31:04.481Z,-5.94
2022-11-28T03:33:35.795Z,-5.94
2022-11-28T03:36:35.430Z,-5.95
2022-11-28T03:39:08.982Z,-5.98
2022-11-28T03:41:46.132Z,-5.97
2022-11-28T03:44:21.262Z,-5.97
2022-11-28T03:46:50.549Z,-5.95
2022-11-28T03:49:25.692Z,-5.91
2022-11-28T03:51:52.314Z,-5.83
2022-11-28T03:54:30.258Z,-5.84
2022-11-28T03:57:03.570Z,-5.92
2022-11-28T03:59:35.118Z,-5.92
2022-11-28T04:02:07.852Z,-5.92
2022-11-28T04:04:55.548Z,-5.95
2022-11-28T04:07:47.276Z,-5.85
2022-11-28T04:10:17.907Z,-5.87
2022-11-28T04:13:02.475Z,-6.01
2022-11-28T04:16:14.445Z,-5.90
2022-11-28T04:19:07.604Z,-5.79
2022-11-28T04:21:55.966Z,-5.83
2022-11-28T04:24:28.536Z,-5.84
2022-11-28T04:27:00.645Z,-5.79
2022-11-28T04:29:31.607Z,-5.88
2022-11-28T04:32:00.768Z,-5.90
2022-11-28T04:34:29.432Z,-5.87
2022-11-28T04:36:59.335Z,-5.79
2022-11-28T04:39:27.499Z,-5.77
2022-11-28T04:42:17.019Z,-5.96
2022-11-28T04:44:54.879Z,-5.88
2022-11-28T04:47:22.510Z,-5.81
2022-11-28T04:49:49.554Z,-5.86
2022-11-28T04:52:21.016Z,-5.89
2022-11-28T04:55:25.462Z,-5.87
2022-11-28T04:58:04.558Z,-5.83
2022-11-28T05:00:34.650Z,-5.88
2022-11-28T05:03:01.513Z,-5.84
2022-11-28T05:05:30.424Z,-5.89
2022-11-28T05:07:58.905Z,-5.74
2022-11-28T05:10:25.911Z,-5.81
2022-11-28T05:12:52.563Z,-5.69
2022-11-28T05:15:19.347Z,-5.78
2022-11-28T05:17:46.892Z,-5.71
2022-11-28T05:20:14.315Z,-5.76
2022-11-28T05:22:40.970Z,-5.86
2022-11-28T05:25:07.906Z,-5.78
2022-11-28T05:27:34.628Z,-5.74
2022-11-28T05:30:01.284Z,-5.86
2022-11-28T05:32:31.383Z,-5.75
2022-11-28T05:34:58.358Z,-5.88
2022-11-28T05:37:25.693Z,-5.80
2022-11-28T05:39:52.403Z,-5.88
2022-11-28T05:42:19.075Z,-5.74
2022-11-28T05:44:45.802Z,-5.72
2022-11-28T05:47:12.447Z,-5.80
2022-11-28T05:49:39.121Z,-5.75
2022-11-28T05:52:05.802Z,-5.80
2022-11-28T05:54:32.479Z,-5.74
2022-11-28T05:56:59.262Z,-5.68
2022-11-28T05:59:26.143Z,-5.67
2022-11-28T06:01:52.883Z,-5.80
2022-11-28T06:04:19.621Z,-5.73
2022-11-28T06:06:46.355Z,-5.74
2022-11-28T06:09:14.118Z,-5.73
2022-11-28T06:11:40.835Z,-5.68
2022-11-28T06:14:07.506Z,-5.64
2022-11-28T06:16:34.340Z,-5.70
2022-11-28T06:19:04.342Z,-5.71
2022-11-28T06:21:32.287Z,-5.65
2022-11-28T06:24:00.028Z,-5.64
2022-11-28T06:26:28.530Z,-5.66
2022-11-28T06:28:55.657Z,-5.65
2022-11-28T06:31:30.854Z,-5.75
2022-11-28T06:33:58.731Z,-5.72
2022-11-28T06:36:26.462Z,-5.63
2022-11-28T06:38:54.093Z,-5.56
2022-11-28T06:41:22.761Z,-5.65
2022-11-28T06:43:49.827Z,-5.59
2022-11-28T06:46:19.388Z,-5.64
2022-11-28T06:48:48.160Z,-5.61
2022-11-28T06:51:14.980Z,-5.61
2022-11-28T06:53:41.896Z,-5.50
2022-11-28T06:56:11.500Z,-5.58
2022-11-28T06:58:38.215Z,-5.56
2022-11-28T07:01:32.171Z,-5.49
2022-11-28T07:03:58.798Z,-5.52
2022-11-28T07:06:26.786Z,-5.53
2022-11-28T07:08:53.882Z,-5.43
2022-11-28T07:11:24.131Z,-5.49
2022-11-28T07:13:51.491Z,-5.51
2022-11-28T07:16:24.712Z,-5.56
2022-11-28T07:18:52.884Z,-5.47
2022-11-28T07:21:20.362Z,-5.49
2022-11-28T07:23:47.508Z,-5.25
2022-11-28T07:26:17.441Z,-5.39
2022-11-28T07:28:45.119Z,-5.50
2022-11-28T07:31:14.820Z,-5.59
2022-11-28T07:33:44.485Z,-5.49
2022-11-28T07:36:22.844Z,-5.46
2022-11-28T07:38:52.096Z,-5.44
2022-11-28T07:41:23.639Z,-5.47
2022-11-28T07:44:04.130Z,-5.38
2022-11-28T07:46:32.470Z,-5.44
2022-11-28T07:48:59.724Z,-5.47
2022-11-28T07:51:32.109Z,-5.34
2022-11-28T07:54:00.056Z,-5.38
2022-11-28T07:56:50.271Z,-5.30
2022-11-28T07:59:16.984Z,-5.40
2022-11-28T08:01:43.755Z,-5.48
2022-11-28T08:04:10.780Z,-5.42
2022-11-28T08:06:40.560Z,-5.44
2022-11-28T08:09:08.134Z,-5.39
2022-11-28T08:11:35.613Z,-5.43
2022-11-28T08:14:03.000Z,-5.30
2022-11-28T08:16:30.309Z,-5.18
2022-11-28T08:19:00.274Z,-5.35
2022-11-28T08:21:30.594Z,-5.31
2022-11-28T08:24:00.853Z,-5.34
2022-11-28T08:26:31.050Z,-5.47
2022-11-28T08:28:59.297Z,-5.43
2022-11-28T08:31:38.194Z,-5.42
2022-11-28T08:34:06.385Z,-5.41
2022-11-28T08:36:33.284Z,-5.39
2022-11-28T08:39:24.002Z,-5.38
2022-11-28T08:41:48.315Z,-5.33
2022-11-28T08:44:16.202Z,-5.37
2022-11-28T08:46:42.964Z,-5.32
2022-11-28T08:49:09.702Z,-5.18
2022-11-28T08:51:36.788Z,-5.30
2022-11-28T08:54:03.619Z,-5.26
2022-11-28T08:56:30.628Z,-5.27
2022-11-28T08:58:57.258Z,-5.30
2022-11-28T09:01:26.152Z,-5.24
2022-11-28T09:03:53.506Z,-5.41
2022-11-28T09:06:21.164Z,-5.30
2022-11-28T09:08:48.779Z,-5.33
2022-11-28T09:11:18.478Z,-5.34
2022-11-28T09:13:45.538Z,-5.20
2022-11-28T09:16:12.352Z,-5.24
2022-11-28T09:18:39.296Z,-5.17
2022-11-28T09:21:09.374Z,-5.25
2022-11-28T09:23:37.710Z,-5.15
2022-11-28T09:26:19.889Z,-5.26
2022-11-28T09:28:46.788Z,-5.15
2022-11-28T09:31:15.237Z,-4.97
2022-11-28T09:33:42.623Z,-5.04
2022-11-28T09:36:12.282Z,-5.00
2022-11-28T09:38:39.064Z,-5.03
2022-11-28T09:41:45.100Z,-4.93
2022-11-28T09:44:21.078Z,-4.89
2022-11-28T09:46:49.935Z,-4.88
2022-11-28T09:49:35.345Z,-4.83
2022-11-28T09:52:21.927Z,-5.08
2022-11-28T09:55:02.166Z,-5.03
2022-11-28T09:57:53.899Z,-5.22
2022-11-28T10:00:28.890Z,-5.15
2022-11-28T10:02:56.154Z,-5.15
2022-11-28T10:05:34.676Z,-5.17
2022-11-28T10:08:10.177Z,-5.18
2022-11-28T10:10:53.844Z,-5.25
2022-11-28T10:14:06.451Z,-5.21
2022-11-28T10:16:50.321Z,-5.27
2022-11-28T10:19:52.801Z,-5.19
2022-11-28T10:22:16.609Z,-5.17
2022-11-28T10:24:55.167Z,-5.20
2022-11-28T10:27:27.023Z,-5.29
2022-11-28T10:30:08.556Z,-5.35
2022-11-28T10:32:39.917Z,-5.37
2022-11-28T10:35:20.882Z,-5.31
2022-11-28T10:37:52.531Z,-5.23
2022-11-28T10:40:26.180Z,-5.33
2022-11-28T10:43:02.681Z,-5.38
2022-11-28T10:45:37.728Z,-5.30
2022-11-28T10:48:38.391Z,-5.31
2022-11-28T10:51:04.868Z,-5.32
2022-11-28T10:53:43.361Z,-5.27
2022-11-28T10:56:45.479Z,-5.31
2022-11-28T10:59:20.830Z,-5.46
2022-11-28T11:01:50.428Z,-5.45
2022-11-28T11:04:20.579Z,-5.25
2022-11-28T11:07:08.880Z,-5.35
2022-11-28T11:09:38.419Z,-5.42
2022-11-28T11:12:13.440Z,-5.50
2022-11-28T11:14:40.288Z,-5.44
2022-11-28T11:17:07.688Z,-5.41
2022-11-28T11:19:37.130Z,-5.46
2022-11-28T11:22:13.026Z,-5.54
2022-11-28T11:24:39.668Z,-5.48
2022-11-28T11:27:21.982Z,-5.57
2022-11-28T11:29:55.003Z,-5.59
2022-11-28T11:32:27.909Z,-5.52
2022-11-28T11:34:56.519Z,-5.46
2022-11-28T11:37:36.622Z,-5.48
2022-11-28T11:40:20.714Z,-5.53
2022-11-28T11:42:56.605Z,-5.53
2022-11-28T11:45:32.115Z,-5.57
2022-11-28T11:47:59.347Z,-5.48
2022-11-28T11:50:29.588Z,-5.54
2022-11-28T11:53:25.675Z,-5.66
2022-11-28T11:55:54.737Z,-5.60
2022-11-28T11:58:30.447Z,-5.61
2022-11-28T12:00:59.722Z,-5.60
2022-11-28T12:03:51.624Z,-5.67
2022-11-28T12:06:25.055Z,-5.80
2022-11-28T12:08:55.484Z,-5.80
2022-11-28T12:11:25.046Z,-5.64
2022-11-28T12:13:52.921Z,-5.59
2022-11-28T12:16:34.597Z,-5.69
2022-11-28T12:19:25.402Z,-5.55
2022-11-28T12:22:18.663Z,-5.51
2022-11-28T12:24:51.511Z,-5.56
2022-11-28T12:27:46.181Z,-5.78
2022-11-28T12:30:39.129Z,-5.65
2022-11-28T12:33:17.383Z,-5.74
2022-11-28T12:36:04.816Z,-5.73
2022-11-28T12:38:49.835Z,-5.56
2022-11-28T12:42:01.190Z,-5.71
2022-11-28T12:45:07.475Z,-5.71
2022-11-28T12:47:55.254Z,-5.67
2022-11-28T12:50:27.519Z,-5.67
2022-11-28T12:53:35.386Z,-5.56
2022-11-28T12:56:38.999Z,-5.77
2022-11-28T12:59:21.493Z,-5.72
2022-11-28T13:02:42.691Z,-5.72
2022-11-28T13:05:22.104Z,-5.79
2022-11-28T13:08:14.595Z,-5.86
2022-11-28T13:10:50.547Z,-5.85
2022-11-28T13:13:29.989Z,-5.77
2022-11-28T13:16:15.313Z,-5.87
2022-11-28T13:19:25.585Z,-5.86
2022-11-28T13:21:55.328Z,-5.81
2022-11-28T13:24:43.812Z,-5.72
2022-11-28T13:27:44.920Z,-5.82
2022-11-28T13:30:25.613Z,-5.81
2022-11-28T13:33:24.277Z,-5.88
2022-11-28T13:35:51.890Z,-5.77
2022-11-28T13:38:53.137Z,-5.82
2022-11-28T13:41:43.204Z,-5.85
2022-11-28T13:44:15.413Z,-6.01
2022-11-28T13:46:46.094Z,-6.01
2022-11-28T13:49:27.005Z,-5.90
2022-11-28T13:52:19.443Z,-5.93
2022-11-28T13:54:55.472Z,-5.75
2022-11-28T13:57:27.024Z,-5.84
2022-11-28T14:00:04.132Z,-5.79
2022-11-28T14:02:42.199Z,-5.68
2022-11-28T14:05:26.762Z,-5.73
2022-11-28T14:07:55.878Z,-5.89
2022-11-28T14:10:28.866Z,-5.92
2022-11-28T14:13:23.242Z,-5.93
2022-11-28T14:15:59.072Z,-5.85
2022-11-28T14:19:00.397Z,-5.91
2022-11-28T14:21:36.082Z,-5.97
2022-11-28T14:24:25.136Z,-6.01
2022-11-28T14:26:59.327Z,-6.01
2022-11-28T14:29:39.548Z,-5.86
2022-11-28T14:32:28.925Z,-5.88
2022-11-28T14:34:53.699Z,-5.86
2022-11-28T14:37:27.173Z,-6.02
2022-11-28T14:39:55.495Z,-6.09
2022-11-28T14:45:45.242Z,-6.08
2022-11-28T14:48:17.175Z,-5.98
2022-11-28T14:50:49.600Z,-6.10
2022-11-28T14:53:44.641Z,-5.97
2022-11-28T14:56:28.496Z,-6.17
2022-11-28T14:59:02.210Z,-6.22
2022-11-28T15:01:55.553Z,-6.16
2022-11-28T15:05:02.660Z,-6.13
2022-11-28T15:08:07.640Z,-6.05
2022-11-28T15:10:46.130Z,-6.22
2022-11-28T15:13:50.121Z,-6.08
2022-11-28T15:16:19.097Z,-6.17
2022-11-28T15:18:53.355Z,-6.10
2022-11-28T15:21:20.820Z,-6.15
2022-11-28T15:23:47.759Z,-6.19
2022-11-28T15:26:29.800Z,-6.22
2022-11-28T15:29:29.173Z,-6.17
2022-11-28T15:31:58.050Z,-6.17
2022-11-28T15:34:26.165Z,-6.10
2022-11-28T15:36:55.698Z,-6.19
2022-11-28T15:39:29.524Z,-6.19
2022-11-28T15:41:58.625Z,-5.99
2022-11-28T15:44:25.519Z,-6.15
2022-11-28T15:46:52.879Z,-6.29
2022-11-28T15:49:27.958Z,-6.28
2022-11-28T15:51:56.737Z,-6.23
2022-11-28T15:54:42.026Z,-6.31
2022-11-28T15:57:20.508Z,-6.24
2022-11-28T15:59:47.387Z,-6.13
2022-11-28T16:02:28.162Z,-6.10
2022-11-28T16:05:16.555Z,-6.08
2022-11-28T16:07:44.738Z,-6.29
2022-11-28T16:10:23.665Z,-6.17
2022-11-28T16:12:50.798Z,-6.06
2022-11-28T16:15:19.687Z,-6.20
2022-11-28T16:17:46.847Z,-6.16
2022-11-28T16:20:28.195Z,-6.10
2022-11-28T16:23:05.163Z,-6.12
2022-11-28T16:25:32.678Z,-6.35
2022-11-28T16:27:59.864Z,-6.19
2022-11-28T16:30:26.639Z,-6.22
2022-11-28T16:32:55.638Z,-6.22
2022-11-28T16:35:41.648Z,-6.27
2022-11-28T16:38:25.255Z,-6.30
2022-11-28T16:40:59.035Z,-6.14
2022-11-28T16:43:49.251Z,-6.17
2022-11-28T16:46:25.283Z,-6.25
2022-11-28T16:48:57.724Z,-6.28
2022-11-28T16:51:32.811Z,-6.21
2022-11-28T16:54:20.667Z,-6.38
2022-11-28T16:56:48.084Z,-6.09
2022-11-28T16:59:18.436Z,-6.08
2022-11-28T17:01:52.883Z,-6.32
2022-11-28T17:04:26.888Z,-6.29
2022-11-28T17:06:59.129Z,-6.03
2022-11-28T17:09:25.794Z,-6.18
2022-11-28T17:12:03.752Z,-6.04
2022-11-28T17:14:30.594Z,-6.21
2022-11-28T17:16:57.272Z,-6.21
2022-11-28T17:19:24.587Z,-6.21
2022-11-28T17:21:58.001Z,-6.09
2022-11-28T17:24:33.185Z,-6.29
2022-11-28T17:27:00.151Z,-6.15
2022-11-28T17:29:27.946Z,-6.27
2022-11-28T17:31:57.259Z,-6.19
2022-11-28T17:34:26.206Z,-6.19
2022-11-28T17:36:52.928Z,-6.20
2022-11-28T17:39:20.714Z,-6.20
2022-11-28T17:41:48.350Z,-6.19
2022-11-28T17:44:21.530Z,-6.12
2022-11-28T17:46:52.130Z,-6.21
2022-11-28T17:49:19.544Z,-6.17
2022-11-28T17:51:46.432Z,-6.31
2022-11-28T17:54:18.488Z,-6.18
2022-11-28T17:56:46.227Z,-6.14
2022-11-28T17:59:14.463Z,-6.22
2022-11-28T18:01:42.022Z,-6.31
2022-11-28T18:04:08.948Z,-6.30
2022-11-28T18:06:35.828Z,-6.16
2022-11-28T18:09:10.169Z,-6.19
2022-11-28T18:11:39.667Z,-6.11
2022-11-28T18:14:06.760Z,-6.13
2022-11-28T18:16:35.642Z,-6.06
2022-11-28T18:19:02.329Z,-6.21
2022-11-28T18:21:28.996Z,-6.23
2022-11-28T18:23:56.127Z,-6.22
2022-11-28T18:26:26.137Z,-6.31
2022-11-28T18:28:54.023Z,-6.11
2022-11-28T18:31:23.396Z,-6.18
2022-11-28T18:33:50.427Z,-6.11
2022-11-28T18:36:25.534Z,-6.04
2022-11-28T18:39:00.871Z,-6.11
2022-11-28T18:41:28.587Z,-6.13
2022-11-28T18:44:00.493Z,-6.08
2022-11-28T18:46:29.331Z,-6.08
2022-11-28T18:48:56.190Z,-6.05
2022-11-28T18:51:25.736Z,-6.04
2022-11-28T18:53:54.918Z,-6.10
2022-11-28T18:56:22.661Z,-6.06
2022-11-28T18:58:54.459Z,-5.94
2022-11-28T19:01:28.675Z,-6.01
2022-11-28T19:03:58.012Z,-6.03
2022-11-28T19:06:24.983Z,-6.04
2022-11-28T19:08:57.229Z,-6.08
2022-11-28T19:11:24.559Z,-6.12
2022-11-28T19:13:53.441Z,-6.04
2022-11-28T19:16:24.754Z,-6.13
2022-11-28T19:18:52.563Z,-6.00
2022-11-28T19:21:22.905Z,-5.83
2022-11-28T19:23:50.500Z,-5.91
2022-11-28T19:26:20.043Z,-5.95
2022-11-28T19:28:47.302Z,-5.92
2022-11-28T19:31:22.909Z,-5.95
2022-11-28T19:34:06.965Z,-5.89
2022-11-28T19:36:37.360Z,-5.90
2022-11-28T19:39:04.671Z,-5.84
2022-11-28T19:41:32.438Z,-5.91
2022-11-28T19:43:59.775Z,-5.80
2022-11-28T19:46:29.219Z,-5.94
2022-11-28T19:48:58.865Z,-5.86
2022-11-28T19:51:25.660Z,-5.86
2022-11-28T19:53:52.372Z,-5.84
2022-11-28T19:56:22.635Z,-5.82
2022-11-28T19:58:49.350Z,-5.88
2022-11-28T20:01:18.933Z,-5.91
2022-11-28T20:03:47.929Z,-5.88
2022-11-28T20:06:18.747Z,-5.82
2022-11-28T20:08:46.535Z,-5.90
2022-11-28T20:11:19.791Z,-5.85
2022-11-28T20:13:47.611Z,-5.82
2022-11-28T20:16:16.762Z,-5.78
2022-11-28T20:18:45.093Z,-5.90
2022-11-28T20:21:14.470Z,-5.79
2022-11-28T20:23:43.875Z,-5.82
2022-11-28T20:26:11.542Z,-5.76
2022-11-28T20:28:40.170Z,-5.85
2022-11-28T20:31:08.076Z,-5.76
2022-11-28T20:33:34.759Z,-5.93
2022-11-28T20:36:09.751Z,-5.91
2022-11-28T20:38:36.512Z,-5.94
2022-11-28T20:41:05.249Z,-5.94
2022-11-28T20:43:33.923Z,-5.88
2022-11-28T20:46:33.728Z,-5.84
2022-11-28T20:49:03.341Z,-5.80
2022-11-28T20:51:32.157Z,-5.92
2022-11-28T20:53:59.707Z,-5.80
2022-11-28T20:56:31.971Z,-5.92
2022-11-28T20:59:00.765Z,-5.92
2022-11-28T21:01:29.504Z,-5.81
2022-11-28T21:03:57.401Z,-5.88
2022-11-28T21:06:24.216Z,-5.80
2022-11-28T21:08:51.233Z,-5.81
2022-11-28T21:11:43.463Z,-5.91
2022-11-28T21:14:07.628Z,-6.02
2022-11-28T21:16:34.752Z,-5.92
2022-11-28T21:19:05.047Z,-5.76
2022-11-28T21:21:34.049Z,-5.72
2022-11-28T21:24:04.286Z,-5.72
2022-11-28T21:26:35.051Z,-5.70
2022-11-28T21:29:07.761Z,-5.79
2022-11-28T21:31:39.373Z,-5.90
2022-11-28T21:34:06.119Z,-5.68
2022-11-28T21:36:32.810Z,-5.74
2022-11-28T21:39:01.238Z,-5.77
2022-11-28T21:41:33.074Z,-5.80
2022-11-28T21:44:00.368Z,-5.83
2022-11-28T21:46:27.920Z,-5.74
2022-11-28T21:48:54.810Z,-5.77
2022-11-28T21:51:24.468Z,-5.83
2022-11-28T21:53:52.118Z,-5.76
2022-11-28T21:56:19.274Z,-5.69
2022-11-28T21:58:46.047Z,-5.67
2022-11-28T22:01:14.213Z,-5.66
2022-11-28T22:03:41.959Z,-5.64
2022-11-28T22:06:12.715Z,-5.60
2022-11-28T22:08:39.406Z,-5.75
2022-11-28T22:11:08.616Z,-5.60
2022-11-28T22:13:35.987Z,-5.67
2022-11-28T22:16:08.405Z,-5.73
2022-11-28T22:18:35.167Z,-5.69
2022-11-28T22:21:06.508Z,-5.88
2022-11-28T22:23:37.743Z,-5.75
2022-11-28T22:26:06.999Z,-5.69
2022-11-28T22:28:34.962Z,-5.58
2022-11-28T22:31:13.590Z,-5.62
2022-11-28T22:33:40.420Z,-5.69
2022-11-28T22:36:10.875Z,-5.77
2022-11-28T22:38:39.048Z,-5.86
2022-11-28T22:41:14.459Z,-5.68
2022-11-28T22:43:41.419Z,-5.70
2022-11-28T22:46:08.952Z,-5.69
2022-11-28T22:48:36.316Z,-5.65
2022-11-28T22:51:14.473Z,-5.74
2022-11-28T22:53:41.481Z,-5.79
2022-11-28T22:56:10.552Z,-5.78
2022-11-28T22:58:42.441Z,-5.60
2022-11-28T23:01:15.114Z,-5.73
2022-11-28T23:03:41.922Z,-5.65
2022-11-28T23:06:12.803Z,-5.70
2022-11-28T23:08:39.726Z,-5.62
2022-11-28T23:11:09.023Z,-5.75
2022-11-28T23:13:36.710Z,-5.69
2022-11-28T23:16:09.326Z,-5.60
2022-11-28T23:18:36.008Z,-5.59
2022-11-28T23:21:02.707Z,-5.65
2022-11-28T23:23:31.922Z,-5.73
2022-11-28T23:26:05.222Z,-5.76
2022-11-28T23:28:32.926Z,-5.60
2022-11-28T23:31:13.105Z,-5.63
2022-11-28T23:33:40.205Z,-5.69
2022-11-28T23:36:24.916Z,-5.59
2022-11-28T23:38:56.641Z,-5.66
2022-11-28T23:41:24.107Z,-5.70
2022-11-28T23:43:50.967Z,-5.64
2022-11-28T23:46:18.951Z,-5.68
2022-11-28T23:48:46.635Z,-5.77
2022-11-28T23:51:14.492Z,-5.80
2022-11-28T23:53:42.179Z,-5.61
2022-11-28T23:56:12.747Z,-5.85
2022-11-28T23:58:39.747Z,-5.76
